Hauptseite
METAR-TAF:

METAR-TAF

Flughäfen :

Bric della Croce

Turin, Italien

Breite: 45-02N, Länge: 007-44E, Höhe: 709 m

Beobachtung

Neuester Wetterbericht von vor 29 Minuten, um 12:55 UTC
Wind 6 kt aus Nord/Nordwest, variierte zwischen West und Nord/Nordost
Temperatur 12°C
Luftfeuchtigkeit 100%
Luftdruck 1015 hPa
Sichtweite: 0100 m
Regen, Nebel

METAR: LIMK 221255Z 34006KT 280V020 0100 RA FG VV001 12/12 Q1015 RMK VAL INVIS VIS MIN 0100

Zeit: 15:24 (13:24 UTC)


TAF: fehlend

Wetterbeobachtungen und Prognosen von mehr als 4000 Flughäfen (METAR und TAF Bericht).

Die verfügbaren Stationen werden durch gelbe und rote Markierungen auf der Karte dargestellt.

Führen Sie die Maus auf sie, um den Namen der Station zu sehen.

Darauf klicken, um die Beobachtung von Wetterbeobachtungen und Prognosen zu sehen.

Um die Karte zu ändern : klicken Sie auf den grünen Tasten mit einem schwarzen Kreuz Zum Vergrößern, auf den grünen Button mit einem Gedankenstrich zu verkleinern, oder auf die grünen Pfeile für benachbarte Karten.


METAR-TAF: